Time;durP1;ratioP1;P1;durP2;ratioP2;P2;SDS_P1;SDS_P2;PMS_P1;PMS_P2;Temp;Humidity;BMP_temperature;BMP_pressure;BME280_temperature;BME280_humidity;BME280_pressure;Samples;Min_cycle;Max_cycle;Signal;HPM_P1;HPM_P2
2022/07/21 00:01:49;;;;;;;7.77;6.97;;;22.40;70.40;;;;;;4994692;28;20468;-91
2022/07/21 00:04:15;;;;;;;8.47;7.17;;;22.40;70.60;;;;;;4994649;28;20438;-91
2022/07/21 00:06:42;;;;;;;9.10;7.20;;;22.40;70.60;;;;;;4993289;28;20418;-91
2022/07/21 00:09:09;;;;;;;7.83;7.03;;;22.40;70.50;;;;;;4993283;28;20454;-90
2022/07/21 00:11:35;;;;;;;7.80;6.77;;;22.60;69.60;;;;;;4987159;28;20411;-91
2022/07/21 00:14:01;;;;;;;8.97;5.93;;;22.50;69.80;;;;;;4974469;28;20427;-91
2022/07/21 00:16:27;;;;;;;7.60;6.60;;;22.50;70.00;;;;;;4973381;28;20475;-91
2022/07/21 00:18:52;;;;;;;7.67;6.87;;;22.50;69.80;;;;;;4957004;28;20463;-91
2022/07/21 00:21:18;;;;;;;8.43;7.53;;;22.40;71.00;;;;;;4973311;28;20458;-91
2022/07/21 00:23:44;;;;;;;8.97;7.70;;;22.30;70.70;;;;;;4974588;28;20195;-91
2022/07/21 00:26:09;;;;;;;7.70;6.97;;;22.20;71.00;;;;;;4974843;28;20258;-91
2022/07/21 00:28:35;;;;;;;9.33;8.13;;;22.20;71.10;;;;;;4973529;28;20258;-91
2022/07/21 00:31:01;;;;;;;15.17;7.53;;;22.20;71.10;;;;;;4957367;28;20187;-91
2022/07/21 00:33:26;;;;;;;9.47;8.57;;;22.10;71.40;;;;;;4973292;28;20196;-91
2022/07/21 00:35:52;;;;;;;9.90;7.93;;;22.20;71.30;;;;;;4973103;28;20180;-90
2022/07/21 00:38:18;;;;;;;9.20;8.03;;;22.20;71.00;;;;;;4972648;28;20207;-90
2022/07/21 00:40:44;;;;;;;9.10;7.77;;;22.00;71.60;;;;;;4973507;28;20184;-91
2022/07/21 00:43:09;;;;;;;7.80;7.00;;;21.90;72.00;;;;;;4973517;28;20657;-91
2022/07/21 00:45:35;;;;;;;8.87;7.30;;;21.90;72.10;;;;;;4973272;28;20597;-91
2022/07/21 00:48:01;;;;;;;8.30;7.33;;;22.00;71.90;;;;;;4972325;28;20451;-90
2022/07/21 00:50:27;;;;;;;7.60;6.90;;;22.00;71.90;;;;;;4973031;28;20450;-91
2022/07/21 00:52:53;;;;;;;9.10;6.73;;;22.10;71.40;;;;;;4974378;28;20175;-91
2022/07/21 00:55:22;;;;;;;12.90;7.77;;;22.10;71.30;;;;;;4972691;28;20455;-91
2022/07/21 00:57:49;;;;;;;6.57;5.97;;;22.00;71.20;;;;;;4973873;28;20439;-90
2022/07/21 01:00:19;;;;;;;8.60;7.10;;;22.10;71.10;;;;;;4991961;28;20418;-91
2022/07/21 01:02:45;;;;;;;7.10;6.17;;;22.00;71.20;;;;;;4977759;28;20418;-91
2022/07/21 01:05:14;;;;;;;6.50;5.90;;;22.00;71.10;;;;;;5001325;28;20440;-91
2022/07/21 01:07:47;;;;;;;6.53;5.83;;;22.00;71.10;;;;;;5011146;28;20219;-91
2022/07/21 01:10:14;;;;;;;6.40;5.80;;;21.90;71.00;;;;;;4992307;28;20450;-91
2022/07/21 01:12:40;;;;;;;6.10;5.50;;;22.00;71.00;;;;;;4977623;28;20510;-91
2022/07/21 01:15:08;;;;;;;6.73;5.60;;;22.00;70.90;;;;;;4972790;28;21051;-91
2022/07/21 01:17:34;;;;;;;7.57;5.60;;;21.90;71.00;;;;;;4972263;28;20420;-91
2022/07/21 01:20:11;;;;;;;7.50;5.40;;;21.90;71.10;;;;;;4974412;28;20478;-91
2022/07/21 01:22:39;;;;;;;9.53;5.10;;;21.90;71.00;;;;;;4961513;28;20180;-90
2022/07/21 01:25:05;;;;;;;16.20;6.87;;;21.90;70.70;;;;;;4974806;28;20453;-91
2022/07/21 01:27:31;;;;;;;8.80;5.60;;;21.80;71.00;;;;;;4973123;28;20506;-91
2022/07/21 01:29:58;;;;;;;9.23;6.10;;;21.80;71.20;;;;;;4972345;28;20967;-91
2022/07/21 01:32:24;;;;;;;6.43;5.80;;;21.70;71.30;;;;;;4972424;28;20453;-91
2022/07/21 01:34:50;;;;;;;6.03;5.10;;;21.70;71.50;;;;;;4973324;28;20438;-91
2022/07/21 01:37:27;;;;;;;6.33;4.93;;;21.70;71.50;;;;;;4971825;28;20175;-91
2022/07/21 01:42:37;;;;;;;5.70;5.20;;;21.60;71.70;;;;;;4974028;28;20465;-91
2022/07/21 01:45:04;;;;;;;7.07;6.07;;;21.50;72.20;;;;;;4971905;28;20470;-90
2022/07/21 01:47:30;;;;;;;5.23;4.43;;;21.50;72.50;;;;;;4972878;28;20479;-91
2022/07/21 01:49:56;;;;;;;6.00;5.27;;;21.50;72.60;;;;;;4973212;28;20442;-91
2022/07/21 01:52:22;;;;;;;6.03;5.37;;;21.50;72.40;;;;;;4971942;28;20964;-91
2022/07/21 01:54:47;;;;;;;8.83;5.73;;;21.50;72.20;;;;;;4972453;28;20218;-91
2022/07/21 01:57:13;;;;;;;12.43;5.80;;;21.60;71.80;;;;;;4974013;28;20407;-91
2022/07/21 01:59:39;;;;;;;8.13;6.30;;;21.50;72.30;;;;;;4991803;28;20183;-91
2022/07/21 02:02:05;;;;;;;11.23;6.43;;;21.60;72.20;;;;;;5011031;28;20191;-91
2022/07/21 02:04:31;;;;;;;9.20;5.97;;;21.50;72.40;;;;;;5004905;28;20533;-92
2022/07/21 02:06:56;;;;;;;9.23;5.90;;;21.50;72.60;;;;;;5003870;28;20472;-91
2022/07/21 02:09:22;;;;;;;8.60;6.57;;;21.40;72.60;;;;;;4995993;28;20357;-91
2022/07/21 02:11:48;;;;;;;8.00;6.50;;;21.40;72.90;;;;;;4985376;28;20214;-91
2022/07/21 02:14:13;;;;;;;8.30;6.47;;;21.40;73.00;;;;;;4972309;28;20238;-91
2022/07/21 02:16:39;;;;;;;7.77;6.10;;;21.40;73.10;;;;;;4971478;28;20658;-91
2022/07/21 02:19:07;;;;;;;12.00;6.20;;;21.40;73.20;;;;;;4972082;28;20215;-91
2022/07/21 02:21:33;;;;;;;6.17;5.20;;;21.50;72.80;;;;;;4972025;28;20255;-90
2022/07/21 02:23:59;;;;;;;8.10;6.53;;;21.50;72.80;;;;;;4971674;28;20907;-91
2022/07/21 02:26:24;;;;;;;5.53;4.97;;;21.50;72.30;;;;;;4971683;28;20188;-91
2022/07/21 02:28:50;;;;;;;7.23;6.47;;;21.60;71.90;;;;;;4972505;28;20227;-91
2022/07/21 02:31:16;;;;;;;6.53;5.80;;;21.70;71.40;;;;;;4971748;28;20242;-91
2022/07/21 02:33:41;;;;;;;6.60;5.80;;;21.60;71.70;;;;;;4971901;28;20433;-91
2022/07/21 02:36:08;;;;;;;8.30;5.83;;;21.50;72.00;;;;;;4971664;28;20267;-91
2022/07/21 02:38:33;;;;;;;5.80;5.20;;;21.50;72.20;;;;;;4955036;28;20188;-91
2022/07/21 02:40:59;;;;;;;6.70;5.80;;;21.50;72.30;;;;;;4971560;28;20423;-91
2022/07/21 02:43:25;;;;;;;8.83;5.50;;;21.50;72.20;;;;;;4971667;28;20214;-91
2022/07/21 02:45:50;;;;;;;7.10;5.47;;;21.50;72.30;;;;;;4971834;28;20270;-91
2022/07/21 02:48:16;;;;;;;7.30;4.50;;;21.50;72.20;;;;;;4971803;28;20208;-91
2022/07/21 02:50:44;;;;;;;8.37;5.77;;;21.50;72.30;;;;;;4975464;28;20491;-91
2022/07/21 02:53:12;;;;;;;11.20;6.57;;;21.50;72.40;;;;;;4984353;28;20176;-91
2022/07/21 02:55:38;;;;;;;4.83;4.23;;;21.50;72.50;;;;;;4974303;28;20936;-91
2022/07/21 02:58:19;;;;;;;6.63;4.70;;;21.60;71.70;;;;;;4972467;28;20419;-91
2022/07/21 03:00:49;;;;;;;8.80;5.23;;;21.70;71.60;;;;;;4975307;28;20430;-91
2022/07/21 03:03:16;;;;;;;7.30;5.10;;;21.70;71.80;;;;;;4993951;28;20414;-91
2022/07/21 03:05:42;;;;;;;6.87;5.43;;;21.60;71.70;;;;;;4994344;28;20992;-91
2022/07/21 03:08:10;;;;;;;7.33;4.67;;;21.50;72.10;;;;;;4993732;28;20549;-91
2022/07/21 03:10:36;;;;;;;6.27;4.90;;;21.50;72.30;;;;;;4994392;28;20670;-91
2022/07/21 03:13:03;;;;;;;14.63;5.47;;;21.50;72.40;;;;;;4976934;28;20426;-92
2022/07/21 03:15:28;;;;;;;9.80;4.83;;;21.40;72.30;;;;;;4974708;28;20463;-91
2022/07/21 03:17:55;;;;;;;11.87;5.67;;;21.40;72.60;;;;;;4974327;28;20431;-90
2022/07/21 03:20:29;;;;;;;9.23;5.80;;;21.40;72.80;;;;;;4974555;28;20180;-91
2022/07/21 03:22:55;;;;;;;8.10;5.00;;;21.40;72.80;;;;;;4974949;28;20422;-91
2022/07/21 03:25:21;;;;;;;6.17;5.20;;;21.40;72.70;;;;;;4974724;28;20526;-91
2022/07/21 03:27:48;;;;;;;5.90;5.30;;;21.40;72.70;;;;;;4975763;28;20231;-91
2022/07/21 03:30:15;;;;;;;11.20;6.50;;;21.40;72.90;;;;;;4974852;28;20419;-91
2022/07/21 03:32:41;;;;;;;9.93;5.77;;;21.30;73.00;;;;;;4974690;28;20447;-91
2022/07/21 03:35:10;;;;;;;6.17;4.80;;;21.20;73.30;;;;;;4974433;28;20443;-91
2022/07/21 03:37:50;;;;;;;8.50;6.00;;;21.30;73.40;;;;;;4973914;28;20937;-91
2022/07/21 03:40:19;;;;;;;11.70;5.53;;;21.40;73.30;;;;;;4974314;28;20423;-91
2022/07/21 03:42:45;;;;;;;12.63;6.70;;;21.30;73.30;;;;;;4974748;28;20462;-91
2022/07/21 03:45:11;;;;;;;13.07;5.93;;;21.30;73.40;;;;;;4974154;28;20474;-91
2022/07/21 03:47:37;;;;;;;10.23;6.60;;;21.40;73.40;;;;;;4975513;28;20211;-91
2022/07/21 03:50:05;;;;;;;9.90;5.70;;;21.30;73.40;;;;;;4974414;28;20422;-91
2022/07/21 03:52:31;;;;;;;10.33;5.93;;;21.30;73.50;;;;;;4975070;28;20471;-91
2022/07/21 03:55:09;;;;;;;12.00;6.53;;;21.30;73.70;;;;;;4979905;28;20802;-91
2022/07/21 03:57:39;;;;;;;8.90;6.03;;;21.30;73.70;;;;;;4975360;28;20407;-91
2022/07/21 04:00:12;;;;;;;8.37;5.43;;;21.40;73.30;;;;;;4990789;28;20433;-92
2022/07/21 04:02:39;;;;;;;10.83;7.30;;;21.30;73.50;;;;;;4993492;28;20418;-91
2022/07/21 04:05:05;;;;;;;7.60;5.70;;;21.40;73.20;;;;;;4993301;28;20470;-91
2022/07/21 04:07:30;;;;;;;8.83;6.77;;;21.40;73.20;;;;;;4992941;28;20498;-91
2022/07/21 04:09:56;;;;;;;10.47;6.40;;;21.50;72.90;;;;;;4993297;28;20417;-91
2022/07/21 04:12:28;;;;;;;7.63;5.87;;;21.50;73.00;;;;;;4981267;28;20192;-91
2022/07/21 04:14:55;;;;;;;9.67;7.20;;;21.60;72.50;;;;;;4973320;28;20447;-91
2022/07/21 04:17:21;;;;;;;12.33;6.83;;;21.70;72.10;;;;;;4973984;28;20415;-91
2022/07/21 04:19:47;;;;;;;9.50;6.53;;;21.50;72.80;;;;;;4975401;28;20407;-91
2022/07/21 04:22:13;;;;;;;10.37;6.60;;;21.50;73.30;;;;;;4979566;28;20416;-91
2022/07/21 04:24:38;;;;;;;10.10;8.40;;;21.50;73.20;;;;;;4978864;28;20714;-91
2022/07/21 04:27:04;;;;;;;10.67;8.33;;;21.50;73.20;;;;;;4976238;28;20274;-92
2022/07/21 04:29:30;;;;;;;9.07;7.27;;;21.50;73.50;;;;;;4977182;28;20188;-90
2022/07/21 04:31:55;;;;;;;13.27;8.63;;;21.50;73.80;;;;;;4974004;28;20267;-91
2022/07/21 04:34:21;;;;;;;13.17;7.30;;;21.50;73.60;;;;;;4958159;28;20207;-91
2022/07/21 04:36:47;;;;;;;10.97;6.67;;;21.70;73.10;;;;;;4973703;28;20243;-91
2022/07/21 04:39:12;;;;;;;11.53;7.57;;;21.70;72.70;;;;;;4976744;28;20180;-91
2022/07/21 04:41:38;;;;;;;12.53;9.27;;;21.70;73.00;;;;;;4996156;28;20203;-91
2022/07/21 04:44:04;;;;;;;12.67;8.80;;;21.60;73.30;;;;;;4977488;28;20310;-91
2022/07/21 04:46:30;;;;;;;15.70;9.67;;;21.70;73.00;;;;;;4973055;28;20195;-91
2022/07/21 04:48:55;;;;;;;16.10;8.70;;;21.70;73.10;;;;;;4972379;28;20219;-91
2022/07/21 04:51:21;;;;;;;12.87;9.30;;;21.70;73.20;;;;;;4972904;28;20175;-91
2022/07/21 04:53:47;;;;;;;16.70;10.90;;;21.90;72.10;;;;;;4995982;23;20220;-91
2022/07/21 04:56:12;;;;;;;16.13;9.93;;;21.80;72.70;;;;;;4975748;28;20180;-89
2022/07/21 04:58:38;;;;;;;11.60;9.20;;;21.70;73.30;;;;;;4976124;28;20176;-89
2022/07/21 05:01:04;;;;;;;13.57;9.57;;;21.80;73.10;;;;;;4978713;28;20219;-89
2022/07/21 05:03:29;;;;;;;18.20;10.20;;;21.90;72.40;;;;;;4979772;28;20652;-89
2022/07/21 05:05:55;;;;;;;15.83;9.50;;;22.00;71.80;;;;;;4980005;28;20179;-89
2022/07/21 05:08:21;;;;;;;13.90;9.37;;;21.90;72.30;;;;;;4980598;28;20695;-89
2022/07/21 05:10:47;;;;;;;12.60;8.73;;;21.90;72.10;;;;;;4980711;28;20176;-89
2022/07/21 05:13:12;;;;;;;17.10;10.40;;;22.00;72.10;;;;;;4980506;28;20176;-88
2022/07/21 05:15:38;;;;;;;16.73;11.13;;;21.80;73.30;;;;;;4980577;28;20223;-89
2022/07/21 05:18:07;;;;;;;15.40;11.40;;;21.80;74.90;;;;;;4978028;28;20176;-88
2022/07/21 05:20:33;;;;;;;17.03;11.13;;;21.70;76.90;;;;;;4974600;28;20175;-88
2022/07/21 05:22:58;;;;;;;18.90;13.10;;;21.70;78.30;;;;;;4959005;28;20427;-89
2022/07/21 05:25:24;;;;;;;26.73;14.30;;;21.80;78.50;;;;;;4974127;28;20679;-88
2022/07/21 05:27:50;;;;;;;31.97;18.17;;;21.80;80.80;;;;;;4974341;28;20207;-88
2022/07/21 05:30:15;;;;;;;24.60;17.80;;;21.40;84.40;;;;;;4975513;28;20183;-88
2022/07/21 05:32:41;;;;;;;21.27;15.00;;;21.10;86.70;;;;;;4975481;28;20648;-88
2022/07/21 05:35:10;;;;;;;27.67;17.97;;;21.00;87.70;;;;;;4977580;28;20226;-88
2022/07/21 05:37:40;;;;;;;25.10;16.93;;;21.00;88.70;;;;;;4980472;28;20654;-88
2022/07/21 05:40:07;;;;;;;20.90;16.90;;;20.90;89.60;;;;;;4980611;28;20419;-88
2022/07/21 05:42:33;;;;;;;26.00;17.67;;;20.90;89.20;;;;;;4983476;28;20430;-88
2022/07/21 05:45:00;;;;;;;27.70;20.97;;;20.80;89.80;;;;;;4983246;28;20451;-88
2022/07/21 05:47:25;;;;;;;25.87;19.47;;;20.60;90.90;;;;;;4965300;28;20454;-89
2022/07/21 05:49:51;;;;;;;30.00;20.50;;;20.50;91.70;;;;;;4982808;28;20435;-88
2022/07/21 05:52:17;;;;;;;26.90;17.57;;;20.50;92.60;;;;;;4981134;28;20203;-88
2022/07/21 05:54:42;;;;;;;36.53;22.27;;;20.50;93.40;;;;;;4983189;28;20223;-89
2022/07/21 05:57:08;;;;;;;30.73;23.40;;;20.50;93.80;;;;;;4978881;28;20628;-88
2022/07/21 05:59:34;;;;;;;29.20;23.33;;;20.50;94.10;;;;;;4976234;28;20187;-88
2022/07/21 06:02:00;;;;;;;34.47;21.77;;;20.40;93.50;;;;;;4978430;28;20199;-88
2022/07/21 06:04:25;;;;;;;30.20;21.80;;;20.30;93.70;;;;;;4960748;28;20212;-88
2022/07/21 06:06:52;;;;;;;31.43;23.50;;;20.30;94.20;;;;;;4975972;28;20430;-89
2022/07/21 06:09:18;;;;;;;28.20;21.30;;;20.30;94.40;;;;;;4975645;28;20374;-89
2022/07/21 06:11:44;;;;;;;24.80;20.10;;;20.20;94.70;;;;;;4974414;28;20424;-89
2022/07/21 06:14:10;;;;;;;25.10;19.53;;;20.30;95.00;;;;;;4973602;28;20449;-89
2022/07/21 06:16:37;;;;;;;30.10;24.10;;;20.20;95.00;;;;;;4973582;28;20180;-88
2022/07/21 06:19:03;;;;;;;25.60;21.37;;;20.20;95.30;;;;;;4975063;28;20446;-89
2022/07/21 06:21:29;;;;;;;28.97;22.90;;;20.20;95.90;;;;;;4974451;28;20427;-89
2022/07/21 06:23:54;;;;;;;27.23;20.43;;;20.20;96.30;;;;;;4974140;28;20443;-89
2022/07/21 06:26:20;;;;;;;22.67;20.20;;;20.20;96.40;;;;;;4979571;28;20423;-89
2022/07/21 06:28:46;;;;;;;28.10;22.67;;;20.20;96.50;;;;;;4994155;28;20207;-89
2022/07/21 06:31:12;;;;;;;25.93;21.70;;;20.10;96.70;;;;;;4996955;28;20191;-88
2022/07/21 06:33:38;;;;;;;22.77;17.83;;;20.10;97.00;;;;;;4985827;28;20458;-89
2022/07/21 06:36:04;;;;;;;23.07;20.50;;;20.10;97.20;;;;;;4974299;28;20632;-89
2022/07/21 06:38:29;;;;;;;26.45;19.92;;;20.10;97.70;;;;;;4977090;28;20481;-89
2022/07/21 06:40:55;;;;;;;26.27;21.70;;;20.10;98.00;;;;;;4979066;28;20176;-89
2022/07/21 06:43:21;;;;;;;24.03;19.17;;;20.00;98.10;;;;;;4978953;28;20195;-89
2022/07/21 06:45:46;;;;;;;18.03;15.23;;;20.00;98.20;;;;;;4979531;28;20195;-89
2022/07/21 06:48:12;;;;;;;18.60;16.53;;;20.10;99.20;;;;;;4982424;28;20223;-89
2022/07/21 06:50:38;;;;;;;22.50;17.10;;;20.00;98.30;;;;;;4995224;28;20172;-89
2022/07/21 06:53:05;;;;;;;19.65;16.85;;;20.00;98.50;;;;;;4994819;28;20248;-89
2022/07/21 06:55:32;;;;;;;20.93;15.80;;;20.00;98.60;;;;;;4994423;28;20215;-89
2022/07/21 06:57:58;;;;;;;20.53;14.80;;;20.00;98.80;;;;;;4994716;28;20503;-89
2022/07/21 07:00:24;;;;;;;20.60;15.30;;;19.90;98.70;;;;;;4994723;28;20427;-89
2022/07/21 07:02:49;;;;;;;18.90;16.13;;;20.00;98.80;;;;;;4982078;28;20211;-89
2022/07/21 07:05:15;;;;;;;19.43;17.30;;;20.00;98.40;;;;;;4977945;28;20533;-89
2022/07/21 07:07:43;;;;;;;16.73;14.47;;;20.00;98.30;;;;;;4981049;28;20211;-89
2022/07/21 07:10:09;;;;;;;22.07;18.33;;;20.10;98.30;;;;;;4979018;28;20184;-89
2022/07/21 07:12:36;;;;;;;26.90;21.00;;;20.10;98.50;;;;;;4981952;28;20431;-89
2022/07/21 07:15:01;;;;;;;29.00;22.67;;;20.00;98.30;;;;;;4981198;28;20957;-89
2022/07/21 07:17:27;;;;;;;25.63;22.03;;;20.00;98.30;;;;;;4981266;28;20423;-89
2022/07/21 07:19:53;;;;;;;25.40;21.53;;;20.00;98.40;;;;;;4983487;28;20176;-89
2022/07/21 07:22:19;;;;;;;23.23;18.70;;;20.00;98.50;;;;;;4981476;28;20172;-89
2022/07/21 07:24:45;;;;;;;27.53;22.67;;;20.10;98.30;;;;;;4978600;28;20287;-89
2022/07/21 07:27:10;;;;;;;35.37;24.63;;;20.00;98.10;;;;;;4976691;28;20416;-88
2022/07/21 07:29:36;;;;;;;31.40;25.23;;;19.90;98.60;;;;;;4976471;28;20188;-89
2022/07/21 07:32:02;;;;;;;32.37;21.97;;;20.00;99.90;;;;;;4976542;28;20190;-89
2022/07/21 07:34:28;;;;;;;30.20;25.67;;;20.00;99.90;;;;;;4977976;28;20439;-89
2022/07/21 07:36:53;;;;;;;30.73;23.67;;;19.90;99.90;;;;;;4976055;28;20180;-89
2022/07/21 07:39:19;;;;;;;34.43;26.37;;;19.90;99.90;;;;;;4975992;28;20251;-88
2022/07/21 07:41:45;;;;;;;36.37;27.13;;;19.80;99.90;;;;;;4976561;28;20415;-89
2022/07/21 07:44:11;;;;;;;43.23;29.17;;;19.80;99.90;;;;;;4977485;28;20226;-89
2022/07/21 07:46:37;;;;;;;37.03;30.83;;;19.80;99.90;;;;;;4979783;28;20257;-89
2022/07/21 07:49:02;;;;;;;39.70;30.27;;;19.80;99.90;;;;;;4975557;28;20551;-89
2022/07/21 07:51:28;;;;;;;42.80;31.17;;;19.80;99.90;;;;;;4976349;28;20180;-89
2022/07/21 07:53:54;;;;;;;38.70;28.93;;;19.80;99.90;;;;;;4976390;28;20462;-89
2022/07/21 07:56:19;;;;;;;45.30;31.53;;;19.70;99.70;;;;;;4976510;28;20234;-90
2022/07/21 07:58:45;;;;;;;39.40;31.30;;;19.80;99.90;;;;;;4977600;28;20225;-89
2022/07/21 08:01:11;;;;;;;39.20;29.30;;;19.80;99.90;;;;;;4978064;28;20175;-89
2022/07/21 08:03:36;;;;;;;35.53;28.63;;;19.70;99.80;;;;;;4977324;28;20179;-89
2022/07/21 08:06:03;;;;;;;39.60;29.17;;;19.80;99.50;;;;;;4981048;28;20192;-90
2022/07/21 08:08:30;;;;;;;35.13;25.90;;;19.80;99.80;;;;;;4981636;28;20235;-90
2022/07/21 08:10:56;;;;;;;35.58;25.08;;;19.80;99.90;;;;;;4978954;28;20451;-90
2022/07/21 08:13:22;;;;;;;28.33;24.27;;;19.80;99.60;;;;;;4976965;28;20184;-90
2022/07/21 08:15:49;;;;;;;25.60;21.97;;;19.70;98.80;;;;;;4976711;28;20439;-89
2022/07/21 08:18:16;;;;;;;27.92;23.40;;;19.80;98.90;;;;;;4989243;28;20415;-89
2022/07/21 08:20:46;;;;;;;28.63;20.30;;;19.70;98.80;;;;;;4988399;28;20191;-89
2022/07/21 08:23:12;;;;;;;27.40;22.55;;;19.70;98.90;;;;;;4977208;28;20962;-89
2022/07/21 08:25:39;;;;;;;30.08;21.88;;;19.70;99.00;;;;;;4976471;28;20270;-89
2022/07/21 08:28:05;;;;;;;38.45;23.65;;;19.70;99.00;;;;;;4976536;28;20207;-89
2022/07/21 08:30:31;;;;;;;31.40;22.73;;;19.70;99.90;;;;;;4982004;28;20195;-89
2022/07/21 08:33:01;;;;;;;26.95;22.33;;;19.70;99.90;;;;;;4979560;28;20423;-89
2022/07/21 08:35:28;;;;;;;31.43;22.13;;;19.70;99.90;;;;;;4981578;28;20220;-89
2022/07/21 08:38:00;;;;;;;27.53;19.83;;;19.80;99.90;;;;;;4981056;28;20427;-89
2022/07/21 08:40:27;;;;;;;23.70;19.90;;;19.80;99.90;;;;;;4979019;28;20423;-89
2022/07/21 08:42:53;;;;;;;28.23;23.00;;;19.80;99.90;;;;;;4977264;28;20455;-89
2022/07/21 08:45:20;;;;;;;29.07;22.63;;;19.80;99.60;;;;;;4979570;28;20200;-90
2022/07/21 08:47:46;;;;;;;30.33;24.40;;;19.90;99.60;;;;;;4984188;28;20490;-89
2022/07/21 08:50:12;;;;;;;33.15;24.52;;;19.90;99.60;;;;;;4990612;28;20454;-89
2022/07/21 08:52:38;;;;;;;29.00;21.63;;;19.90;99.70;;;;;;4988325;28;20180;-89
2022/07/21 08:55:04;;;;;;;25.63;19.73;;;19.90;99.90;;;;;;4996000;28;20231;-89
2022/07/21 08:57:30;;;;;;;24.73;20.87;;;19.90;99.80;;;;;;4981483;28;20238;-89
2022/07/21 08:59:55;;;;;;;28.23;20.93;;;19.80;99.50;;;;;;4976577;28;20423;-89
2022/07/21 09:02:27;;;;;;;22.97;18.90;;;19.80;99.90;;;;;;4978081;28;20183;-89
2022/07/21 09:04:53;;;;;;;20.67;17.67;;;19.80;99.90;;;;;;4975797;28;20206;-90
2022/07/21 09:07:19;;;;;;;28.58;18.77;;;19.80;99.90;;;;;;4975278;28;20192;-90
2022/07/21 09:09:58;;;;;;;21.53;16.80;;;19.80;99.70;;;;;;4976166;28;20190;-90
2022/07/21 09:12:25;;;;;;;20.13;16.30;;;19.80;99.60;;;;;;4976273;28;20442;-90
2022/07/21 09:14:51;;;;;;;19.40;17.40;;;19.80;99.50;;;;;;4975306;28;20644;-90
2022/07/21 09:17:18;;;;;;;13.70;12.23;;;19.80;99.50;;;;;;4975289;28;20176;-90
2022/07/21 09:19:47;;;;;;;15.50;13.13;;;19.80;99.20;;;;;;4975713;28;20191;-90
2022/07/21 09:22:18;;;;;;;17.23;13.45;;;19.90;98.30;;;;;;4976528;28;20694;-90
2022/07/21 09:24:51;;;;;;;12.73;10.93;;;19.80;96.80;;;;;;4977685;28;20208;-90
2022/07/21 09:27:22;;;;;;;12.47;11.17;;;20.00;95.80;;;;;;4976835;28;20180;-90
2022/07/21 09:29:56;;;;;;;14.00;10.30;;;20.10;95.60;;;;;;4979842;28;20427;-90
2022/07/21 09:32:26;;;;;;;12.97;9.87;;;20.20;94.90;;;;;;4959959;28;20497;-90
2022/07/21 09:35:09;;;;;;;11.10;9.43;;;20.20;93.70;;;;;;4975542;28;20443;-89
2022/07/21 09:37:36;;;;;;;17.60;10.80;;;20.20;93.80;;;;;;4975693;28;20415;-90
2022/07/21 09:40:13;;;;;;;12.87;9.90;;;20.30;93.90;;;;;;4976967;28;20415;-90
2022/07/21 09:42:42;;;;;;;12.57;10.57;;;20.30;94.00;;;;;;4976498;28;20454;-90
2022/07/21 09:45:11;;;;;;;12.53;11.17;;;20.40;93.70;;;;;;4974290;28;20474;-90
2022/07/21 09:47:38;;;;;;;15.60;12.73;;;20.40;93.30;;;;;;4974153;28;20465;-90
2022/07/21 09:50:05;;;;;;;18.30;13.40;;;20.30;93.20;;;;;;4975536;28;20415;-90
2022/07/21 09:52:37;;;;;;;14.63;10.90;;;20.30;93.40;;;;;;4974695;28;20419;-90
2022/07/21 09:55:07;;;;;;;14.07;12.00;;;20.20;93.10;;;;;;4976817;28;20461;-90
2022/07/21 09:57:34;;;;;;;12.87;11.23;;;20.20;93.30;;;;;;4975526;28;20423;-90
2022/07/21 10:00:00;;;;;;;12.97;11.67;;;20.20;93.50;;;;;;4976127;28;20427;-90
2022/07/21 10:02:31;;;;;;;17.67;12.90;;;20.20;93.30;;;;;;4961058;28;20428;-90
2022/07/21 10:04:58;;;;;;;12.57;9.37;;;20.20;93.20;;;;;;4959232;28;20439;-90
2022/07/21 10:07:26;;;;;;;16.57;9.40;;;20.10;92.50;;;;;;4974729;28;20423;-90
2022/07/21 10:09:52;;;;;;;13.50;9.60;;;20.20;92.20;;;;;;4975919;28;20444;-90
2022/07/21 10:12:19;;;;;;;10.40;8.70;;;20.30;92.00;;;;;;4979621;28;20423;-90
2022/07/21 10:14:46;;;;;;;11.33;9.40;;;20.30;91.80;;;;;;4979518;28;20427;-90
2022/07/21 10:17:15;;;;;;;16.37;9.90;;;20.20;91.10;;;;;;4961428;28;20427;-89
2022/07/21 10:20:09;;;;;;;13.60;10.30;;;20.30;91.20;;;;;;4978620;28;20442;-90
2022/07/21 10:23:06;;;;;;;11.23;8.40;;;20.30;91.20;;;;;;4980885;28;20410;-90
2022/07/21 10:25:32;;;;;;;10.47;7.50;;;20.30;91.90;;;;;;4978230;28;20442;-90
2022/07/21 10:28:10;;;;;;;11.70;7.90;;;20.30;91.00;;;;;;4977444;28;20466;-90
2022/07/21 10:30:48;;;;;;;10.40;8.20;;;20.30;91.00;;;;;;4979894;28;20438;-90
2022/07/21 10:33:17;;;;;;;10.43;8.07;;;20.30;91.30;;;;;;4982951;28;20997;-90
2022/07/21 10:35:44;;;;;;;10.27;7.40;;;20.30;91.20;;;;;;4982187;28;20439;-90
2022/07/21 10:38:31;;;;;;;12.40;7.20;;;20.20;91.10;;;;;;4977820;28;20478;-90
2022/07/21 10:40:59;;;;;;;9.93;7.10;;;20.20;91.40;;;;;;4961877;28;20453;-90
2022/07/21 10:43:24;;;;;;;11.20;7.63;;;20.20;91.10;;;;;;4978209;28;20411;-90
2022/07/21 10:45:52;;;;;;;11.23;8.93;;;20.20;92.30;;;;;;4978616;28;20542;-90
2022/07/21 10:48:36;;;;;;;8.60;7.77;;;20.20;91.80;;;;;;4977697;28;20302;-90
2022/07/21 10:51:13;;;;;;;9.00;8.10;;;20.10;92.10;;;;;;4977922;28;20451;-90
2022/07/21 10:53:40;;;;;;;11.23;8.77;;;20.00;92.10;;;;;;4979547;28;20407;-90
